Hoogezand, Netherlands
Current Conditions -  °F | °C
As of 10:25 PM on Wednesday 17 Dec 2014 (Local Time) from EHGG Reporting Station
Broken Clouds Broken Clouds  
Wind Chill: 44°   Ceiling: 4000
Heat Index: 48°   Visibility: 6mi
Dew Point: 46°   Wind: 10mph
Humidity: 93%   Direction: 250°WSW
Pressure: 29.68"   Gusts: NA
Location:  53.16°N, 6.76°E
Report Text: EHGG 172125Z AUTO 25009KT 9999 FEW007 BKN040 09/08 Q1005 TEMPOBKN006
Loading
Personal Weather Stations






























Interactive Weather Map New forecast layout! Learn more

10-Day Weather Forecast

Advertisements
Track Severe Weather on mobile